Marapanim, Brazil
Current Conditions -  °F | °C
As of 1:00 PM on Friday 21 Nov 2014 (Local Time) from SBBE Reporting Station
Broken Clouds Broken Clouds  
Wind Chill: 88°   Ceiling: 3500
Heat Index: 91°   Visibility: 6mi
Dew Point: 68°   Wind: 6mph
Humidity: 52%   Direction: 90°E
Pressure: 29.83"   Gusts: NA
Location:  0.72°S, 47.7°W
Report Text: SBBE 211600Z 09005KT 9999 BKN035 31/20 Q1010
Loading
Personal Weather Stations






























Interactive Weather Map New forecast layout! Learn more

10-Day Weather Forecast

Advertisements
Track Severe Weather on mobile